createdAt,value
2023-03-11T00:00:06.133Z,6.05
2023-03-11T00:01:45.885Z,6.06
2023-03-11T00:03:25.648Z,6.04
2023-03-11T00:05:05.414Z,6.02
2023-03-11T00:06:45.198Z,6.04
2023-03-11T00:08:24.989Z,6.02
2023-03-11T00:10:04.778Z,5.98
2023-03-11T00:11:44.478Z,6.01
2023-03-11T00:13:24.264Z,5.96
2023-03-11T00:15:04.026Z,6
2023-03-11T00:16:43.797Z,5.96
2023-03-11T00:18:23.583Z,5.96
2023-03-11T00:20:03.358Z,5.95
2023-03-11T00:21:43.088Z,5.98
2023-03-11T00:23:22.872Z,5.95
2023-03-11T00:25:02.631Z,5.95
2023-03-11T00:26:42.392Z,5.94
2023-03-11T00:28:22.147Z,5.94
2023-03-11T00:30:01.918Z,5.95
2023-03-11T00:31:41.696Z,5.94
2023-03-11T00:33:21.464Z,5.93
2023-03-11T00:35:01.236Z,5.93
2023-03-11T00:36:40.997Z,5.91
2023-03-11T00:38:20.958Z,5.91
2023-03-11T00:40:00.538Z,5.9
2023-03-11T00:41:40.316Z,5.88
2023-03-11T00:43:20.134Z,5.9
2023-03-11T00:44:59.844Z,5.88
2023-03-11T00:46:39.598Z,5.87
2023-03-11T00:48:19.450Z,5.83
2023-03-11T00:49:59.129Z,5.85
2023-03-11T00:51:38.897Z,5.86
2023-03-11T00:53:18.701Z,5.81
2023-03-11T00:54:58.482Z,5.83
2023-03-11T00:56:38.202Z,5.82
2023-03-11T00:58:17.988Z,5.8
2023-03-11T00:59:57.730Z,5.82
2023-03-11T01:01:37.508Z,5.77
2023-03-11T01:03:17.300Z,5.8
2023-03-11T01:04:57.026Z,5.78
2023-03-11T01:06:36.805Z,5.79
2023-03-11T01:08:16.570Z,5.77
2023-03-11T01:09:56.332Z,5.75
2023-03-11T01:11:36.114Z,5.72
2023-03-11T01:13:15.888Z,5.74
2023-03-11T01:14:55.667Z,5.73
2023-03-11T01:16:35.413Z,5.72
2023-03-11T01:18:15.191Z,5.68
2023-03-11T01:19:54.964Z,5.7
2023-03-11T01:21:34.704Z,5.69
2023-03-11T01:23:14.489Z,5.67
2023-03-11T01:24:54.258Z,5.65
2023-03-11T01:26:34.018Z,5.65
2023-03-11T01:28:13.780Z,5.65
2023-03-11T01:31:33.309Z,5.6
2023-03-11T01:33:13.067Z,5.63
2023-03-11T01:34:52.860Z,5.59
2023-03-11T01:36:32.610Z,5.58
2023-03-11T01:38:12.401Z,5.59
2023-03-11T01:39:52.144Z,5.58
2023-03-11T01:41:31.912Z,5.57
2023-03-11T01:43:11.685Z,5.55
2023-03-11T01:44:51.443Z,5.54
2023-03-11T01:46:31.208Z,5.54
2023-03-11T01:48:10.976Z,5.51
2023-03-11T01:49:50.747Z,5.51
2023-03-11T01:51:30.513Z,5.49
2023-03-11T01:53:10.288Z,5.49
2023-03-11T01:54:50.056Z,5.47
2023-03-11T01:56:29.823Z,5.47
2023-03-11T01:58:09.578Z,5.44
2023-03-11T01:59:49.353Z,5.44
2023-03-11T02:01:29.115Z,5.41
2023-03-11T02:03:08.931Z,5.41
2023-03-11T02:04:48.656Z,5.41
2023-03-11T02:06:28.415Z,5.4
2023-03-11T02:08:08.191Z,5.38
2023-03-11T02:09:47.945Z,5.38
2023-03-11T02:11:27.764Z,5.34
2023-03-11T02:13:07.497Z,5.35
2023-03-11T02:14:47.266Z,5.31
2023-03-11T02:16:27.031Z,5.31
2023-03-11T02:18:06.794Z,5.31
2023-03-11T02:19:46.584Z,5.27
2023-03-11T02:21:26.333Z,5.29
2023-03-11T02:23:06.129Z,5.25
2023-03-11T02:24:45.881Z,5.27
2023-03-11T02:26:25.622Z,5.23
2023-03-11T02:28:05.412Z,5.25
2023-03-11T02:29:45.174Z,5.23
2023-03-11T02:31:24.934Z,5.23
2023-03-11T02:33:04.707Z,5.21
2023-03-11T02:34:44.485Z,5.19
2023-03-11T02:36:24.241Z,5.19
2023-03-11T02:38:04.008Z,5.17
2023-03-11T02:39:43.787Z,5.16
2023-03-11T02:41:23.546Z,5.13
2023-03-11T02:43:03.308Z,5.11
2023-03-11T02:44:43.095Z,5.1
2023-03-11T02:46:22.885Z,5.1
2023-03-11T02:48:02.676Z,5.08
2023-03-11T02:49:42.379Z,5.09
2023-03-11T02:51:22.137Z,5.05
2023-03-11T02:53:01.902Z,5.08
2023-03-11T02:54:41.657Z,5.05
2023-03-11T02:56:21.439Z,5.06
2023-03-11T02:58:01.219Z,5.03
2023-03-11T02:59:40.968Z,5.01
2023-03-11T03:01:20.914Z,5
2023-03-11T03:03:00.507Z,4.98
2023-03-11T03:04:40.278Z,5.02
2023-03-11T03:06:20.086Z,4.98
2023-03-11T03:07:59.812Z,4.96
2023-03-11T03:09:39.572Z,4.96
2023-03-11T03:11:19.350Z,4.96
2023-03-11T03:12:59.132Z,4.94
2023-03-11T03:14:38.875Z,4.96
2023-03-11T03:16:18.652Z,4.94
2023-03-11T03:17:58.408Z,4.92
2023-03-11T03:19:38.197Z,4.91
2023-03-11T03:21:17.940Z,4.92
2023-03-11T03:22:57.724Z,4.91
2023-03-11T03:24:37.488Z,4.91
2023-03-11T03:26:17.258Z,4.87
2023-03-11T03:27:57.014Z,4.88
2023-03-11T03:29:36.790Z,4.85
2023-03-11T03:31:16.559Z,4.88
2023-03-11T03:32:56.326Z,4.84
2023-03-11T03:34:36.175Z,4.84
2023-03-11T03:36:15.849Z,4.86
2023-03-11T03:37:55.621Z,4.85
2023-03-11T03:39:35.397Z,4.82
2023-03-11T03:41:15.139Z,4.81
2023-03-11T03:42:54.927Z,4.82
2023-03-11T03:44:34.682Z,4.79
2023-03-11T03:46:14.470Z,4.78
2023-03-11T03:47:54.238Z,4.78
2023-03-11T03:49:33.989Z,4.79
2023-03-11T03:51:13.770Z,4.79
2023-03-11T03:52:53.532Z,4.79
2023-03-11T03:54:33.297Z,4.73
2023-03-11T03:56:13.075Z,4.77
2023-03-11T03:57:52.824Z,4.76
2023-03-11T03:59:32.594Z,4.71
2023-03-11T04:01:12.349Z,4.73
2023-03-11T04:02:52.126Z,4.73
2023-03-11T04:04:31.918Z,4.69
2023-03-11T04:06:11.666Z,4.71
2023-03-11T04:07:51.433Z,4.69
2023-03-11T04:09:31.198Z,4.69
2023-03-11T04:11:10.973Z,4.71
2023-03-11T04:12:50.728Z,4.69
2023-03-11T04:14:30.495Z,4.67
2023-03-11T04:16:10.284Z,4.69
2023-03-11T04:17:50.043Z,4.66
2023-03-11T04:19:29.841Z,4.67
2023-03-11T04:21:09.578Z,4.64
2023-03-11T04:22:49.350Z,4.63
2023-03-11T04:24:29.115Z,4.64
2023-03-11T04:26:08.877Z,4.62
2023-03-11T04:27:48.652Z,4.65
2023-03-11T04:29:28.406Z,4.63
2023-03-11T04:31:08.166Z,4.6
2023-03-11T04:32:47.937Z,4.6
2023-03-11T04:34:27.702Z,4.62
2023-03-11T04:36:07.488Z,4.59
2023-03-11T04:37:47.258Z,4.61
2023-03-11T04:39:26.998Z,4.6
2023-03-11T04:41:06.786Z,4.57
2023-03-11T04:42:46.534Z,4.57
2023-03-11T04:44:26.303Z,4.55
2023-03-11T04:46:06.068Z,4.58
2023-03-11T04:47:45.834Z,4.54
2023-03-11T04:49:25.675Z,4.57
2023-03-11T04:51:05.377Z,4.54
2023-03-11T04:52:45.145Z,4.56
2023-03-11T04:54:24.925Z,4.53
2023-03-11T04:56:04.682Z,4.52
2023-03-11T04:57:44.455Z,4.51
2023-03-11T04:59:24.205Z,4.54
2023-03-11T05:01:03.979Z,4.53
2023-03-11T05:02:43.875Z,4.54
2023-03-11T05:04:23.574Z,4.53
2023-03-11T05:06:03.299Z,4.48
2023-03-11T05:07:43.047Z,4.51
2023-03-11T05:09:22.820Z,4.52
2023-03-11T05:11:02.577Z,4.51
2023-03-11T05:12:42.355Z,4.48
2023-03-11T05:14:22.122Z,4.51
2023-03-11T05:16:01.899Z,4.48
2023-03-11T05:17:41.649Z,4.48
2023-03-11T05:19:21.404Z,4.46
2023-03-11T05:21:01.191Z,4.46
2023-03-11T05:22:40.941Z,4.46
2023-03-11T05:24:20.719Z,4.48
2023-03-11T05:26:00.499Z,4.48
2023-03-11T05:27:40.260Z,4.46
2023-03-11T05:29:20.030Z,4.48
2023-03-11T05:30:59.787Z,4.48
2023-03-11T05:32:39.550Z,4.51
2023-03-11T05:34:19.339Z,4.54
2023-03-11T05:35:59.086Z,4.56
2023-03-11T05:37:38.869Z,4.6
2023-03-11T05:39:18.624Z,4.6
2023-03-11T05:40:58.406Z,4.64
2023-03-11T05:42:38.154Z,4.63
2023-03-11T05:44:17.948Z,4.69
2023-03-11T05:45:57.684Z,4.71
2023-03-11T05:47:37.459Z,4.69
2023-03-11T05:49:17.275Z,4.78
2023-03-11T05:50:56.993Z,4.71
2023-03-11T05:52:36.767Z,4.77
2023-03-11T05:54:16.532Z,4.78
2023-03-11T05:55:56.302Z,4.8
2023-03-11T05:57:36.066Z,4.83
2023-03-11T05:59:15.845Z,4.82
2023-03-11T06:00:55.623Z,4.85
2023-03-11T06:02:35.380Z,4.81
2023-03-11T06:04:15.151Z,4.86
2023-03-11T06:05:54.901Z,4.88
2023-03-11T06:07:34.668Z,4.86
2023-03-11T06:09:14.433Z,4.91
2023-03-11T06:10:54.203Z,4.88
2023-03-11T06:12:33.979Z,4.88
2023-03-11T06:14:13.751Z,4.9
2023-03-11T06:15:53.508Z,4.94
2023-03-11T06:17:33.296Z,4.92
2023-03-11T06:19:13.059Z,4.92
2023-03-11T06:20:52.814Z,4.94
2023-03-11T06:22:32.575Z,4.94
2023-03-11T06:24:12.333Z,4.98
2023-03-11T06:25:52.119Z,4.96
2023-03-11T06:27:31.885Z,4.96
2023-03-11T06:29:11.653Z,5
2023-03-11T06:30:51.411Z,5
2023-03-11T06:32:31.193Z,4.98
2023-03-11T06:34:10.973Z,5.02
2023-03-11T06:35:50.726Z,5.01
2023-03-11T06:37:30.493Z,5.04
2023-03-11T06:39:10.255Z,5.01
2023-03-11T06:40:50.015Z,5.02
2023-03-11T06:42:29.846Z,5.01
2023-03-11T06:44:09.550Z,5.05
2023-03-11T06:45:49.322Z,5.07
2023-03-11T06:47:29.116Z,5.09
2023-03-11T06:49:08.851Z,5.05
2023-03-11T06:50:48.613Z,5.08
2023-03-11T06:52:28.393Z,5.05
2023-03-11T06:54:08.160Z,5.04
2023-03-11T06:55:47.932Z,5.09
2023-03-11T06:57:27.716Z,5.1
2023-03-11T06:59:07.539Z,5.11
2023-03-11T07:00:47.240Z,5.12
2023-03-11T07:02:26.997Z,5.07
2023-03-11T07:04:06.756Z,5.09
2023-03-11T07:05:46.535Z,5.08
2023-03-11T07:07:26.317Z,5.07
2023-03-11T07:09:06.103Z,5.11
2023-03-11T07:10:45.824Z,5.11
2023-03-11T07:12:25.602Z,5.12
2023-03-11T07:14:05.380Z,5.14
2023-03-11T07:15:45.144Z,5.11
2023-03-11T07:17:24.895Z,5.13
2023-03-11T07:19:04.701Z,5.12
2023-03-11T07:20:44.445Z,5.13
2023-03-11T07:22:24.202Z,5.11
2023-03-11T07:24:03.986Z,5.14
2023-03-11T07:25:43.745Z,5.16
2023-03-11T07:27:23.522Z,5.17
2023-03-11T07:29:03.288Z,5.17
2023-03-11T07:30:43.049Z,5.19
2023-03-11T07:32:22.835Z,5.2
2023-03-11T07:34:02.610Z,5.18
2023-03-11T07:35:42.376Z,5.23
2023-03-11T07:37:22.122Z,5.22
2023-03-11T07:39:01.886Z,5.22
2023-03-11T07:40:41.677Z,5.24
2023-03-11T07:42:21.438Z,5.23
2023-03-11T07:44:01.204Z,5.24
2023-03-11T07:45:40.968Z,5.2
2023-03-11T07:47:20.777Z,5.21
2023-03-11T07:49:00.523Z,5.24
2023-03-11T07:50:40.281Z,5.22
2023-03-11T07:52:20.063Z,5.23
2023-03-11T07:53:59.878Z,5.24
2023-03-11T07:55:39.632Z,5.24
2023-03-11T07:57:19.366Z,5.21
2023-03-11T07:58:59.133Z,5.28
2023-03-11T08:00:39.083Z,5.23
2023-03-11T08:02:18.662Z,5.23
2023-03-11T08:03:58.448Z,5.29
2023-03-11T08:05:38.221Z,5.27
2023-03-11T08:07:17.995Z,5.28
2023-03-11T08:08:57.764Z,5.25
2023-03-11T08:10:37.527Z,5.3
2023-03-11T08:12:17.295Z,5.28
2023-03-11T08:13:57.096Z,5.3
2023-03-11T08:15:36.837Z,5.29
2023-03-11T08:17:16.613Z,5.33
2023-03-11T08:18:56.376Z,5.35
2023-03-11T08:20:36.198Z,5.3
2023-03-11T08:22:15.908Z,5.33
2023-03-11T08:23:55.679Z,5.35
2023-03-11T08:25:35.483Z,5.37
2023-03-11T08:27:15.230Z,5.38
2023-03-11T08:28:54.989Z,5.37
2023-03-11T08:30:34.776Z,5.37
2023-03-11T08:32:14.556Z,5.41
2023-03-11T08:33:54.304Z,5.42
2023-03-11T08:35:34.070Z,5.46
2023-03-11T08:37:13.855Z,5.45
2023-03-11T08:38:53.647Z,5.43
2023-03-11T08:40:33.386Z,5.47
2023-03-11T08:42:13.156Z,5.46
2023-03-11T08:43:52.952Z,5.47
2023-03-11T08:45:32.725Z,5.45
2023-03-11T08:47:12.461Z,5.47
2023-03-11T08:48:52.238Z,5.47
2023-03-11T08:50:32.002Z,5.46
2023-03-11T08:52:11.772Z,5.49
2023-03-11T08:53:51.544Z,5.47
2023-03-11T08:55:31.330Z,5.47
2023-03-11T08:57:11.084Z,5.48
2023-03-11T08:58:50.851Z,5.48
2023-03-11T09:00:30.685Z,5.56
2023-03-11T09:02:10.401Z,5.57
2023-03-11T09:03:50.181Z,5.6
2023-03-11T09:05:29.986Z,5.63
2023-03-11T09:07:09.695Z,5.69
2023-03-11T09:08:49.495Z,5.69
2023-03-11T09:10:29.238Z,5.73
2023-03-11T09:12:09.016Z,5.77
2023-03-11T09:13:48.844Z,5.82
2023-03-11T09:15:28.559Z,5.86
2023-03-11T09:17:08.315Z,5.85
2023-03-11T09:18:48.093Z,5.86
2023-03-11T09:20:27.860Z,5.92
2023-03-11T09:22:07.638Z,5.93
2023-03-11T09:23:47.439Z,5.95
2023-03-11T09:25:27.192Z,5.97
2023-03-11T09:27:06.940Z,5.98
2023-03-11T09:28:46.792Z,5.99
2023-03-11T09:30:26.490Z,5.99
2023-03-11T09:32:06.325Z,6
2023-03-11T09:33:46.092Z,6.01
2023-03-11T09:35:25.800Z,6.05
2023-03-11T09:37:05.798Z,6.06
2023-03-11T09:38:45.344Z,6.04
2023-03-11T09:40:25.118Z,6.08
2023-03-11T09:42:04.897Z,6.05
2023-03-11T09:43:44.660Z,6.12
2023-03-11T09:45:24.413Z,6.12
2023-03-11T09:47:04.203Z,6.12
2023-03-11T09:48:43.953Z,6.14
2023-03-11T09:50:23.737Z,6.17
2023-03-11T09:52:03.495Z,6.16
2023-03-11T09:53:43.322Z,6.2
2023-03-11T09:55:23.050Z,6.23
2023-03-11T09:57:02.818Z,6.21
2023-03-11T09:58:42.605Z,6.21
2023-03-11T10:00:22.394Z,6.22
2023-03-11T10:02:02.140Z,6.26
2023-03-11T10:03:41.895Z,6.25
2023-03-11T10:05:21.663Z,6.25
2023-03-11T10:07:01.429Z,6.28
2023-03-11T10:08:41.213Z,6.29
2023-03-11T10:10:20.991Z,6.29
2023-03-11T10:12:00.759Z,6.31
2023-03-11T10:13:40.516Z,6.31
2023-03-11T10:15:20.300Z,6.38
2023-03-11T10:17:00.064Z,6.37
2023-03-11T10:18:39.856Z,6.41
2023-03-11T10:20:19.596Z,6.4
2023-03-11T10:21:59.418Z,6.42
2023-03-11T10:23:39.138Z,6.41
2023-03-11T10:25:18.901Z,6.44
2023-03-11T10:26:58.670Z,6.47
2023-03-11T10:28:38.466Z,6.46
2023-03-11T10:30:18.218Z,6.48
2023-03-11T10:31:57.987Z,6.52
2023-03-11T10:33:37.754Z,6.5
2023-03-11T10:35:17.533Z,6.56
2023-03-11T10:36:57.292Z,6.54
2023-03-11T10:38:37.094Z,6.55
2023-03-11T10:40:16.842Z,6.59
2023-03-11T10:41:56.632Z,6.59
2023-03-11T10:43:36.412Z,6.58
2023-03-11T10:45:16.204Z,6.59
2023-03-11T10:46:56.030Z,6.65
2023-03-11T10:48:35.753Z,6.61
2023-03-11T10:50:15.465Z,6.63
2023-03-11T10:51:55.221Z,6.65
2023-03-11T10:53:35.147Z,6.68
2023-03-11T10:55:14.829Z,6.67
2023-03-11T10:56:54.536Z,6.71
2023-03-11T10:58:34.307Z,6.7
2023-03-11T11:00:14.080Z,6.7
2023-03-11T11:01:53.854Z,6.75
2023-03-11T11:03:33.624Z,6.75
2023-03-11T11:05:13.381Z,6.74
2023-03-11T11:06:53.207Z,6.76
2023-03-11T11:08:32.933Z,6.74
2023-03-11T11:10:12.706Z,6.74
2023-03-11T11:11:52.478Z,6.74
2023-03-11T11:13:32.242Z,6.77
2023-03-11T11:15:12.010Z,6.83
2023-03-11T11:16:51.803Z,6.83
2023-03-11T11:18:31.631Z,6.8
2023-03-11T11:20:11.330Z,6.84
2023-03-11T11:21:51.103Z,6.86
2023-03-11T11:23:30.867Z,6.87
2023-03-11T11:25:10.642Z,6.88
2023-03-11T11:26:50.408Z,6.9
2023-03-11T11:28:30.222Z,6.89
2023-03-11T11:30:10.028Z,6.93
2023-03-11T11:31:49.726Z,6.9
2023-03-11T11:33:29.476Z,6.93
2023-03-11T11:35:09.279Z,6.94
2023-03-11T11:36:49.021Z,6.93
2023-03-11T11:38:28.806Z,6.95
2023-03-11T11:40:08.574Z,6.99
2023-03-11T11:41:48.343Z,6.97
2023-03-11T11:43:28.104Z,7.01
2023-03-11T11:45:07.876Z,7.02
2023-03-11T11:46:47.645Z,7.03
2023-03-11T11:48:27.421Z,7.07
2023-03-11T11:50:07.168Z,7.06
2023-03-11T11:51:46.966Z,7.07
2023-03-11T11:53:26.724Z,7.07
2023-03-11T11:55:06.501Z,7.1
2023-03-11T11:56:46.269Z,7.12
2023-03-11T11:58:26.034Z,7.12
2023-03-11T12:00:05.808Z,7.12
2023-03-11T12:01:45.591Z,7.12
2023-03-11T12:03:25.350Z,7.14
2023-03-11T12:05:05.114Z,7.16
2023-03-11T12:06:44.882Z,7.16
2023-03-11T12:08:24.663Z,7.18
2023-03-11T12:10:04.493Z,7.22
2023-03-11T12:11:44.202Z,7.25
2023-03-11T12:13:23.980Z,7.25
2023-03-11T12:15:03.730Z,7.24
2023-03-11T12:16:43.504Z,7.26
2023-03-11T12:18:23.273Z,7.29
2023-03-11T12:20:03.056Z,7.3
2023-03-11T12:21:42.818Z,7.29
2023-03-11T12:23:22.591Z,7.31
2023-03-11T12:25:02.357Z,7.29
2023-03-11T12:26:42.118Z,7.26
2023-03-11T12:28:21.917Z,7.25
2023-03-11T12:30:01.685Z,7.21
2023-03-11T12:31:41.439Z,7.18
2023-03-11T12:33:21.213Z,7.19
2023-03-11T12:35:00.964Z,7.2
2023-03-11T12:36:40.761Z,7.19
2023-03-11T12:38:20.531Z,7.22
2023-03-11T12:40:00.523Z,7.23
2023-03-11T12:41:40.071Z,7.2
2023-03-11T12:43:19.830Z,7.24
2023-03-11T12:44:59.585Z,7.2
2023-03-11T12:46:39.371Z,7.21
2023-03-11T12:48:19.132Z,7.18
2023-03-11T12:49:58.895Z,7.19
2023-03-11T12:51:38.732Z,7.21
2023-03-11T12:53:18.458Z,7.25
2023-03-11T12:54:58.212Z,7.24
2023-03-11T12:56:37.992Z,7.24
2023-03-11T12:58:17.767Z,7.24
2023-03-11T12:59:57.529Z,7.22
2023-03-11T13:01:37.317Z,7.27
2023-03-11T13:03:17.067Z,7.25
2023-03-11T13:04:56.836Z,7.25
2023-03-11T13:06:36.650Z,7.28
2023-03-11T13:08:16.386Z,7.28
2023-03-11T13:09:56.156Z,7.26
2023-03-11T13:11:35.979Z,7.26
2023-03-11T13:13:15.713Z,7.27
2023-03-11T13:14:55.475Z,7.31
2023-03-11T13:16:35.309Z,7.29
2023-03-11T13:18:15.007Z,7.29
2023-03-11T13:19:54.791Z,7.3
2023-03-11T13:21:34.540Z,7.34
2023-03-11T13:23:14.327Z,7.33
2023-03-11T13:24:54.097Z,7.34
2023-03-11T13:26:33.856Z,7.36
2023-03-11T13:28:13.620Z,7.35
2023-03-11T13:29:53.396Z,7.36
2023-03-11T13:31:33.173Z,7.4
2023-03-11T13:33:12.926Z,7.42
2023-03-11T13:34:52.706Z,7.37
2023-03-11T13:36:32.491Z,7.38
2023-03-11T13:38:12.265Z,7.41
2023-03-11T13:39:52.074Z,7.39
2023-03-11T13:41:31.875Z,7.4
2023-03-11T13:43:11.591Z,7.39
2023-03-11T13:44:51.335Z,7.4
2023-03-11T13:46:31.108Z,7.4
2023-03-11T13:48:10.871Z,7.41
2023-03-11T13:49:50.721Z,7.41
2023-03-11T13:51:30.442Z,7.41
2023-03-11T13:53:10.263Z,7.4
2023-03-11T13:54:49.972Z,7.41
2023-03-11T13:56:29.731Z,7.47
2023-03-11T13:58:09.491Z,7.44
2023-03-11T13:59:49.260Z,7.46
2023-03-11T14:01:29.037Z,7.44
2023-03-11T14:03:08.798Z,7.47
2023-03-11T14:04:48.565Z,7.5
2023-03-11T14:06:28.342Z,7.5
2023-03-11T14:08:08.119Z,7.53
2023-03-11T14:09:47.885Z,7.53
2023-03-11T14:11:27.652Z,7.53
2023-03-11T14:13:07.428Z,7.54
2023-03-11T14:14:47.193Z,7.58
2023-03-11T14:16:26.953Z,7.59
2023-03-11T14:18:06.728Z,7.57
2023-03-11T14:19:46.494Z,7.59
2023-03-11T14:21:26.292Z,7.61
2023-03-11T14:23:06.034Z,7.59
2023-03-11T14:24:45.806Z,7.6
2023-03-11T14:26:25.621Z,7.63
2023-03-11T14:28:05.415Z,7.65
2023-03-11T14:29:45.128Z,7.62
2023-03-11T14:31:24.883Z,7.63
2023-03-11T14:33:04.652Z,7.66
2023-03-11T14:34:44.420Z,7.69
2023-03-11T14:36:24.201Z,7.62
2023-03-11T14:38:03.983Z,7.65
2023-03-11T14:39:43.736Z,7.64
2023-03-11T14:41:23.509Z,7.65
2023-03-11T14:43:03.276Z,7.64
2023-03-11T14:44:43.068Z,7.67
2023-03-11T14:46:22.809Z,7.67
2023-03-11T14:48:02.599Z,7.68
2023-03-11T14:49:42.351Z,7.65
2023-03-11T14:51:22.169Z,7.66
2023-03-11T14:53:01.949Z,7.68
2023-03-11T14:54:41.674Z,7.67
2023-03-11T14:56:21.423Z,7.67
2023-03-11T14:58:01.212Z,7.69
2023-03-11T14:59:40.965Z,7.67
2023-03-11T15:01:20.743Z,7.68
2023-03-11T15:03:00.506Z,7.69
2023-03-11T15:04:40.409Z,7.67
2023-03-11T15:06:20.251Z,7.7
2023-03-11T15:07:59.926Z,7.69
2023-03-11T15:09:39.733Z,7.69
2023-03-11T15:11:19.382Z,7.7
2023-03-11T15:12:59.163Z,7.71
2023-03-11T15:14:38.982Z,7.72
2023-03-11T15:16:18.666Z,7.72
2023-03-11T15:17:58.440Z,7.73
2023-03-11T15:19:38.264Z,7.74
2023-03-11T15:21:18.007Z,7.74
2023-03-11T15:22:57.758Z,7.77
2023-03-11T15:24:37.518Z,7.82
2023-03-11T15:26:17.325Z,7.77
2023-03-11T15:27:57.064Z,7.79
2023-03-11T15:29:36.833Z,7.79
2023-03-11T15:31:16.593Z,7.8
2023-03-11T15:32:56.372Z,7.82
2023-03-11T15:34:36.160Z,7.83
2023-03-11T15:36:15.898Z,7.85
2023-03-11T15:37:55.683Z,7.83
2023-03-11T15:39:35.510Z,7.87
2023-03-11T15:41:15.213Z,7.88
2023-03-11T15:42:55.003Z,7.91
2023-03-11T15:44:34.782Z,7.92
2023-03-11T15:46:14.523Z,7.94
2023-03-11T15:47:54.328Z,7.95
2023-03-11T15:49:34.057Z,7.94
2023-03-11T15:51:13.834Z,7.98
2023-03-11T15:52:53.594Z,7.99
2023-03-11T15:54:33.379Z,7.99
2023-03-11T15:56:13.134Z,8.01
2023-03-11T15:57:52.909Z,8.01
2023-03-11T15:59:32.677Z,8.03
2023-03-11T16:01:12.464Z,8.04
2023-03-11T16:02:52.226Z,8.01
2023-03-11T16:04:31.993Z,8.01
2023-03-11T16:06:11.760Z,8.02
2023-03-11T16:07:51.524Z,8.07
2023-03-11T16:09:31.289Z,8.03
2023-03-11T16:11:11.066Z,8.06
2023-03-11T16:12:50.829Z,8.08
2023-03-11T16:14:30.617Z,8.04
2023-03-11T16:16:10.403Z,8.07
2023-03-11T16:17:50.145Z,8.1
2023-03-11T16:19:29.925Z,8.05
2023-03-11T16:21:09.675Z,8.05
2023-03-11T16:22:49.453Z,8.06
2023-03-11T16:24:29.249Z,8.08
2023-03-11T16:26:08.987Z,8.08
2023-03-11T16:27:48.774Z,8.06
2023-03-11T16:29:28.535Z,8.05
2023-03-11T16:31:08.310Z,8.06
2023-03-11T16:32:48.073Z,8.07
2023-03-11T16:34:27.847Z,8.06
2023-03-11T16:36:07.615Z,8.05
2023-03-11T16:37:47.404Z,8.05
2023-03-11T16:39:27.170Z,8.06
2023-03-11T16:41:06.932Z,8.05
2023-03-11T16:42:46.691Z,8.03
2023-03-11T16:44:26.467Z,8.04
2023-03-11T16:46:06.272Z,8.02
2023-03-11T16:47:46.008Z,8.02
2023-03-11T16:49:25.773Z,8
2023-03-11T16:51:05.554Z,7.95
2023-03-11T16:52:45.305Z,7.92
2023-03-11T16:54:25.091Z,7.9
2023-03-11T16:56:04.897Z,7.87
2023-03-11T16:57:44.613Z,7.84
2023-03-11T16:59:24.399Z,7.84
2023-03-11T17:01:04.171Z,7.8
2023-03-11T17:02:43.932Z,7.78
2023-03-11T17:04:23.710Z,7.79
2023-03-11T17:06:03.479Z,7.74
2023-03-11T17:07:43.263Z,7.72
2023-03-11T17:09:23.012Z,7.68
2023-03-11T17:11:02.763Z,7.68
2023-03-11T17:12:42.556Z,7.64
2023-03-11T17:14:22.328Z,7.61
2023-03-11T17:16:02.080Z,7.62
2023-03-11T17:17:41.838Z,7.59
2023-03-11T17:19:21.620Z,7.6
2023-03-11T17:21:01.401Z,7.57
2023-03-11T17:22:41.137Z,7.5
2023-03-11T17:24:20.918Z,7.5
2023-03-11T17:26:00.678Z,7.49
2023-03-11T17:27:40.439Z,7.46
2023-03-11T17:29:20.260Z,7.4
2023-03-11T17:30:59.988Z,7.37
2023-03-11T17:32:39.744Z,7.34
2023-03-11T17:34:19.534Z,7.3
2023-03-11T17:35:59.301Z,7.25
2023-03-11T17:37:39.041Z,7.21
2023-03-11T17:39:18.806Z,7.14
2023-03-11T17:40:58.589Z,7.11
2023-03-11T17:42:38.354Z,7.07
2023-03-11T17:44:18.108Z,7.03
2023-03-11T17:45:57.884Z,7
2023-03-11T17:47:37.662Z,6.95
2023-03-11T17:49:17.415Z,6.93
2023-03-11T17:50:57.228Z,6.89
2023-03-11T17:52:36.951Z,6.86
2023-03-11T17:54:16.727Z,6.83
2023-03-11T17:55:56.487Z,6.75
2023-03-11T17:57:36.333Z,6.72
2023-03-11T17:59:16.020Z,6.73
2023-03-11T18:00:55.785Z,6.69
2023-03-11T18:02:35.552Z,6.62
2023-03-11T18:04:15.318Z,6.6
2023-03-11T18:05:55.152Z,6.57
2023-03-11T18:07:34.846Z,6.57
2023-03-11T18:09:14.611Z,6.53
2023-03-11T18:10:54.399Z,6.5
2023-03-11T18:12:34.180Z,6.47
2023-03-11T18:14:13.953Z,6.44
2023-03-11T18:15:53.703Z,6.39
2023-03-11T18:17:33.476Z,6.4
2023-03-11T18:19:13.337Z,6.34
2023-03-11T18:20:52.996Z,6.31
2023-03-11T18:22:32.752Z,6.28
2023-03-11T18:24:12.539Z,6.29
2023-03-11T18:25:52.282Z,6.27
2023-03-11T18:27:32.078Z,6.21
2023-03-11T18:29:11.839Z,6.21
2023-03-11T18:30:51.606Z,6.17
2023-03-11T18:32:31.378Z,6.14
2023-03-11T18:34:11.128Z,6.13
2023-03-11T18:35:50.901Z,6.08
2023-03-11T18:37:30.654Z,6.09
2023-03-11T18:39:10.424Z,6.03
2023-03-11T18:40:50.197Z,6.04
2023-03-11T18:42:29.966Z,6.02
2023-03-11T18:44:09.732Z,6
2023-03-11T18:45:49.494Z,5.94
2023-03-11T18:47:29.259Z,5.95
2023-03-11T18:49:09.077Z,5.91
2023-03-11T18:50:48.791Z,5.91
2023-03-11T18:52:28.568Z,5.89
2023-03-11T18:54:08.346Z,5.84
2023-03-11T18:55:48.102Z,5.83
2023-03-11T18:57:27.864Z,5.83
2023-03-11T18:59:07.686Z,5.79
2023-03-11T19:00:47.440Z,5.75
2023-03-11T19:02:27.168Z,5.74
2023-03-11T19:04:06.937Z,5.72
2023-03-11T19:05:46.700Z,5.69
2023-03-11T19:07:26.483Z,5.69
2023-03-11T19:09:06.233Z,5.65
2023-03-11T19:10:46.004Z,5.66
2023-03-11T19:12:25.781Z,5.62
2023-03-11T19:14:05.549Z,5.61
2023-03-11T19:15:45.315Z,5.58
2023-03-11T19:17:25.157Z,5.56
2023-03-11T19:19:04.861Z,5.55
2023-03-11T19:20:44.645Z,5.55
2023-03-11T19:22:24.391Z,5.5
2023-03-11T19:24:04.145Z,5.47
2023-03-11T19:25:43.928Z,5.46
2023-03-11T19:27:23.686Z,5.47
2023-03-11T19:29:03.453Z,5.44
2023-03-11T19:30:43.230Z,5.43
2023-03-11T19:32:22.990Z,5.39
2023-03-11T19:34:02.748Z,5.38
2023-03-11T19:35:42.516Z,5.35
2023-03-11T19:37:22.286Z,5.35
2023-03-11T19:39:02.053Z,5.34
2023-03-11T19:40:42.058Z,5.3
2023-03-11T19:42:21.780Z,5.3
2023-03-11T19:44:01.574Z,5.26
2023-03-11T19:45:41.112Z,5.26
2023-03-11T19:47:20.884Z,5.24
2023-03-11T19:49:00.655Z,5.25
2023-03-11T19:50:40.425Z,5.19
2023-03-11T19:52:20.186Z,5.19
2023-03-11T19:53:59.966Z,5.16
2023-03-11T19:55:39.731Z,5.19
2023-03-11T19:57:19.525Z,5.13
2023-03-11T19:58:59.268Z,5.14
2023-03-11T20:00:39.026Z,5.11
2023-03-11T20:02:18.798Z,5.11
2023-03-11T20:03:58.593Z,5.07
2023-03-11T20:05:38.323Z,5.07
2023-03-11T20:07:18.095Z,5.03
2023-03-11T20:08:57.873Z,5.05
2023-03-11T20:10:37.638Z,5
2023-03-11T20:12:17.413Z,4.98
2023-03-11T20:13:57.165Z,4.98
2023-03-11T20:15:36.959Z,4.96
2023-03-11T20:17:16.857Z,4.98
2023-03-11T20:18:56.669Z,4.96
2023-03-11T20:20:36.233Z,4.94
2023-03-11T20:22:16.104Z,4.92
2023-03-11T20:23:55.857Z,4.9
2023-03-11T20:25:35.540Z,4.9
2023-03-11T20:27:15.361Z,4.85
2023-03-11T20:28:55.065Z,4.86
2023-03-11T20:30:34.861Z,4.83
2023-03-11T20:32:14.656Z,4.84
2023-03-11T20:33:54.371Z,4.82
2023-03-11T20:35:34.161Z,4.82
2023-03-11T20:37:13.929Z,4.78
2023-03-11T20:38:53.722Z,4.78
2023-03-11T20:40:33.457Z,4.77
2023-03-11T20:42:13.203Z,4.75
2023-03-11T20:43:52.986Z,4.73
2023-03-11T20:45:32.803Z,4.71
2023-03-11T20:47:12.506Z,4.69
2023-03-11T20:48:52.280Z,4.67
2023-03-11T20:50:32.043Z,4.67
2023-03-11T20:52:11.822Z,4.67
2023-03-11T20:53:51.596Z,4.67
2023-03-11T20:55:31.348Z,4.65
2023-03-11T20:57:11.148Z,4.65
2023-03-11T20:58:50.883Z,4.61
2023-03-11T21:00:30.705Z,4.63
2023-03-11T21:02:10.444Z,4.62
2023-03-11T21:03:50.179Z,4.6
2023-03-11T21:05:29.958Z,4.59
2023-03-11T21:07:09.724Z,4.58
2023-03-11T21:08:49.582Z,4.57
2023-03-11T21:10:29.347Z,4.54
2023-03-11T21:12:09.125Z,4.56
2023-03-11T21:13:48.882Z,4.54
2023-03-11T21:15:28.671Z,4.51
2023-03-11T21:17:08.415Z,4.48
2023-03-11T21:18:48.210Z,4.51
2023-03-11T21:20:27.955Z,4.46
2023-03-11T21:22:07.727Z,4.46
2023-03-11T21:23:47.493Z,4.46
2023-03-11T21:25:27.276Z,4.44
2023-03-11T21:27:07.069Z,4.42
2023-03-11T21:28:46.783Z,4.4
2023-03-11T21:30:26.587Z,4.41
2023-03-11T21:32:06.322Z,4.42
2023-03-11T21:33:46.129Z,4.39
2023-03-11T21:35:25.875Z,4.39
2023-03-11T21:37:05.636Z,4.36
2023-03-11T21:38:45.404Z,4.36
2023-03-11T21:40:25.179Z,4.36
2023-03-11T21:42:04.936Z,4.37
2023-03-11T21:43:44.692Z,4.33
2023-03-11T21:45:24.471Z,4.31
2023-03-11T21:47:04.250Z,4.3
2023-03-11T21:48:43.997Z,4.31
2023-03-11T21:50:23.776Z,4.28
2023-03-11T21:52:03.554Z,4.29
2023-03-11T21:53:43.319Z,4.28
2023-03-11T21:55:23.066Z,4.26
2023-03-11T21:57:02.845Z,4.27
2023-03-11T21:58:42.600Z,4.25
2023-03-11T22:00:22.369Z,4.23
2023-03-11T22:02:02.165Z,4.21
2023-03-11T22:03:41.908Z,4.17
2023-03-11T22:05:21.703Z,4.17
2023-03-11T22:07:01.449Z,4.17
2023-03-11T22:08:41.209Z,4.17
2023-03-11T22:10:20.961Z,4.15
2023-03-11T22:12:00.752Z,4.17
2023-03-11T22:13:40.498Z,4.15